createdAt,value
2019-01-22T00:00:01.697Z,0.6
2019-01-22T00:05:01.508Z,0.6
2019-01-22T00:10:01.921Z,0.6
2019-01-22T00:15:02.192Z,0.6
2019-01-22T00:20:01.727Z,0.6
2019-01-22T00:25:01.515Z,0.5
2019-01-22T00:30:01.317Z,0.5
2019-01-22T00:35:02.228Z,0.4
2019-01-22T00:40:01.945Z,0.4
2019-01-22T00:45:01.591Z,0.4
2019-01-22T00:50:01.488Z,0.4
2019-01-22T00:55:01.529Z,0.3
2019-01-22T01:00:01.292Z,0.3
2019-01-22T01:05:01.944Z,0.2
2019-01-22T01:10:02.035Z,0.2
2019-01-22T01:15:02.001Z,0.2
2019-01-22T01:20:01.885Z,0.1
2019-01-22T01:25:02.229Z,0.1
2019-01-22T01:30:01.666Z,0.2
2019-01-22T01:35:02.122Z,0.1
2019-01-22T01:40:01.930Z,0.2
2019-01-22T01:45:01.779Z,0.2
2019-01-22T01:50:01.305Z,0.2
2019-01-22T01:55:02.027Z,0.2
2019-01-22T02:00:01.988Z,0.3
2019-01-22T02:05:01.768Z,0.3
2019-01-22T02:10:01.417Z,0.3
2019-01-22T02:15:01.571Z,0.4
2019-01-22T02:20:01.890Z,0.4
2019-01-22T02:25:01.835Z,0.4
2019-01-22T02:30:01.976Z,0.4
2019-01-22T02:35:02.074Z,0.5
2019-01-22T02:40:02.146Z,0.5
2019-01-22T02:45:02.295Z,0.5
2019-01-22T02:50:01.773Z,0.5
2019-01-22T02:55:01.760Z,0.6
2019-01-22T03:00:02.297Z,0.6
2019-01-22T03:05:02.122Z,0.6
2019-01-22T03:10:02.128Z,0.6
2019-01-22T03:15:01.481Z,0.6
2019-01-22T03:20:01.708Z,0.7
2019-01-22T03:25:01.279Z,0.8
2019-01-22T03:30:01.573Z,0.7
2019-01-22T03:35:02.367Z,0.8
2019-01-22T03:40:01.993Z,0.8
2019-01-22T03:45:01.970Z,0.9
2019-01-22T03:50:02.263Z,0.9
2019-01-22T03:55:01.693Z,0.9
2019-01-22T04:00:01.940Z,0.9
2019-01-22T04:05:01.545Z,0.9
2019-01-22T04:10:01.857Z,0.9
2019-01-22T04:15:01.965Z,0.8
2019-01-22T04:20:01.716Z,0.9
2019-01-22T04:25:02.012Z,0.9
2019-01-22T04:30:02.113Z,0.9
2019-01-22T04:35:01.356Z,0.8
2019-01-22T04:40:02.336Z,0.8
2019-01-22T04:45:01.894Z,0.8
2019-01-22T04:50:01.875Z,0.8
2019-01-22T04:55:01.442Z,0.8
2019-01-22T05:00:01.927Z,0.8
2019-01-22T05:05:01.940Z,0.7
2019-01-22T05:10:02.077Z,0.7
2019-01-22T05:15:01.457Z,0.7
2019-01-22T05:20:01.441Z,0.7
2019-01-22T05:25:01.290Z,0.7
2019-01-22T05:30:01.782Z,0.7
2019-01-22T05:35:01.620Z,0.7
2019-01-22T05:40:01.782Z,0.7
2019-01-22T05:45:01.507Z,0.7
2019-01-22T05:50:02.220Z,0.6
2019-01-22T05:55:01.255Z,0.6
2019-01-22T06:00:02.089Z,0.6
2019-01-22T06:05:01.634Z,0.6
2019-01-22T06:10:01.651Z,0.6
2019-01-22T06:15:01.429Z,0.6
2019-01-22T06:20:01.587Z,0.7
2019-01-22T06:25:01.672Z,0.8
2019-01-22T06:30:01.519Z,0.8
2019-01-22T06:35:01.931Z,0.9
2019-01-22T06:40:01.954Z,0.9
2019-01-22T06:45:01.307Z,0.9
2019-01-22T06:50:01.516Z,0.9
2019-01-22T06:55:01.767Z,0.9
2019-01-22T07:00:01.637Z,0.9
2019-01-22T07:05:01.799Z,0.9
2019-01-22T07:10:02.159Z,0.9
2019-01-22T07:15:01.462Z,0.9
2019-01-22T07:20:02.423Z,0.8
2019-01-22T07:25:04.713Z,0.8
2019-01-22T07:30:01.769Z,0.8
2019-01-22T07:35:01.630Z,0.9
2019-01-22T07:40:01.528Z,0.8
2019-01-22T07:45:01.806Z,0.8
2019-01-22T07:50:01.866Z,0.8
2019-01-22T07:55:02.197Z,0.8
2019-01-22T08:00:01.360Z,0.8
2019-01-22T08:05:01.391Z,0.8
2019-01-22T08:10:01.678Z,0.8
2019-01-22T08:15:01.454Z,0.8
2019-01-22T08:20:01.273Z,0.9
2019-01-22T08:25:01.359Z,0.9
2019-01-22T08:30:02.082Z,0.9
2019-01-22T08:35:02.012Z,0.9
2019-01-22T08:40:01.983Z,0.8
2019-01-22T08:45:01.504Z,0.9
2019-01-22T08:50:02.025Z,0.9
2019-01-22T08:55:07.799Z,1
2019-01-22T09:00:01.407Z,0.9
2019-01-22T09:05:01.554Z,0.9
2019-01-22T09:10:01.956Z,0.9
2019-01-22T09:15:02.119Z,0.9
2019-01-22T09:20:01.852Z,0.9
2019-01-22T09:25:01.621Z,0.9
2019-01-22T09:30:01.900Z,0.9
2019-01-22T09:35:02.067Z,0.8
2019-01-22T09:40:02.008Z,0.8
2019-01-22T09:45:01.427Z,0.8
2019-01-22T09:50:01.537Z,0.8
2019-01-22T09:55:01.333Z,0.8
2019-01-22T10:00:01.734Z,0.8
2019-01-22T10:05:01.872Z,0.8
2019-01-22T10:10:02.121Z,0.8
2019-01-22T10:15:01.583Z,0.9
2019-01-22T10:20:01.920Z,0.9
2019-01-22T10:25:01.704Z,1.1
2019-01-22T10:30:01.896Z,1.4
2019-01-22T10:35:02.181Z,1.5
2019-01-22T10:40:02.564Z,1.6
2019-01-22T10:45:01.347Z,1.7
2019-01-22T10:50:01.486Z,2
2019-01-22T10:55:02.164Z,2.2
2019-01-22T11:00:01.280Z,2.3
2019-01-22T11:05:01.628Z,2.5
2019-01-22T11:10:01.264Z,2.7
2019-01-22T11:15:01.378Z,2.9
2019-01-22T11:20:01.552Z,3
2019-01-22T11:25:01.452Z,3
2019-01-22T11:30:02.246Z,3.1
2019-01-22T11:35:02.153Z,3.1
2019-01-22T11:40:01.253Z,3.4
2019-01-22T11:45:01.211Z,3.5
2019-01-22T11:50:02.606Z,3.7
2019-01-22T11:55:01.692Z,3.7
2019-01-22T12:00:01.922Z,3.9
2019-01-22T12:05:01.893Z,3.9
2019-01-22T12:10:01.559Z,4
2019-01-22T12:15:02.070Z,3.8
2019-01-22T12:20:02.173Z,3.8
2019-01-22T12:25:01.425Z,3.8
2019-01-22T12:30:01.917Z,3.8
2019-01-22T12:35:01.976Z,3.9
2019-01-22T12:40:01.719Z,4
2019-01-22T12:45:01.610Z,4.1
2019-01-22T12:50:01.727Z,4.2
2019-01-22T12:55:01.824Z,4.2
2019-01-22T13:00:02.071Z,4.2
2019-01-22T13:05:01.963Z,4.2
2019-01-22T13:10:01.765Z,4.1
2019-01-22T13:15:02.106Z,3.9
2019-01-22T13:20:01.620Z,3.8
2019-01-22T13:25:01.566Z,3.7
2019-01-22T13:30:01.979Z,3.5
2019-01-22T13:35:02.370Z,3.5
2019-01-22T13:40:01.428Z,3.3
2019-01-22T13:45:01.721Z,3
2019-01-22T13:50:01.851Z,2.8
2019-01-22T13:55:01.790Z,2.7
2019-01-22T14:00:02.161Z,2.3
2019-01-22T14:05:01.347Z,2.3
2019-01-22T14:10:02.148Z,2.1
2019-01-22T14:15:01.715Z,2
2019-01-22T14:20:01.847Z,2
2019-01-22T14:25:01.578Z,2
2019-01-22T14:30:02.152Z,1.9
2019-01-22T14:35:02.007Z,1.8
2019-01-22T14:40:02.272Z,1.6
2019-01-22T14:45:01.638Z,1.5
2019-01-22T14:50:01.693Z,1.4
2019-01-22T14:55:01.506Z,1.4
2019-01-22T15:00:02.091Z,1.3
2019-01-22T15:05:02.279Z,1.1
2019-01-22T15:10:02.096Z,1
2019-01-22T15:15:02.133Z,0.9
2019-01-22T15:20:01.850Z,0.8
2019-01-22T15:25:01.682Z,0.7
2019-01-22T15:30:02.074Z,0.6
2019-01-22T15:35:01.595Z,0.6
2019-01-22T15:40:01.495Z,0.5
2019-01-22T15:45:06.005Z,0.4
2019-01-22T15:50:01.891Z,0.4
2019-01-22T15:55:01.826Z,0.3
2019-01-22T16:00:02.078Z,0.2
2019-01-22T16:05:01.876Z,0.2
2019-01-22T16:10:02.071Z,0.2
2019-01-22T16:15:01.444Z,0.2
2019-01-22T16:20:01.520Z,0.2
2019-01-22T16:25:01.670Z,0.1
2019-01-22T16:30:01.737Z,0.1
2019-01-22T16:35:01.633Z,0
2019-01-22T16:40:01.703Z,0
2019-01-22T16:45:01.550Z,0
2019-01-22T16:50:01.439Z,-0.1
2019-01-22T16:55:01.968Z,-0.1
2019-01-22T17:00:01.299Z,-0.1
2019-01-22T17:05:01.658Z,-0.1
2019-01-22T17:10:01.752Z,-0.1
2019-01-22T17:15:01.966Z,-0.1
2019-01-22T17:20:01.640Z,-0.1
2019-01-22T17:25:01.962Z,-0.1
2019-01-22T17:30:02.001Z,-0.1
2019-01-22T17:35:01.404Z,-0.2
2019-01-22T17:40:01.808Z,-0.2
2019-01-22T17:45:01.944Z,-0.2
2019-01-22T17:50:01.900Z,-0.3
2019-01-22T17:55:02.469Z,-0.3
2019-01-22T18:00:01.378Z,-0.3
2019-01-22T18:05:02.442Z,-0.3
2019-01-22T18:10:02.830Z,-0.3
2019-01-22T18:15:02.174Z,-0.4
2019-01-22T18:20:01.638Z,-0.4
2019-01-22T18:25:01.361Z,-0.4
2019-01-22T18:30:01.713Z,-0.4
2019-01-22T18:35:01.396Z,-0.5
2019-01-22T18:40:02.730Z,-0.5
2019-01-22T18:45:02.052Z,-0.5
2019-01-22T18:50:02.053Z,-0.5
2019-01-22T18:55:01.912Z,-0.5
2019-01-22T19:00:02.109Z,-0.6
2019-01-22T19:05:01.728Z,-0.6
2019-01-22T19:10:03.866Z,-0.6
2019-01-22T19:15:01.451Z,-0.7
2019-01-22T19:20:01.886Z,-0.7
2019-01-22T19:25:02.056Z,-0.7
2019-01-22T19:30:01.529Z,-0.7
2019-01-22T19:35:02.282Z,-0.7
2019-01-22T19:40:01.930Z,-0.8
2019-01-22T19:45:02.154Z,-0.8
2019-01-22T19:50:01.793Z,-0.8
2019-01-22T19:55:01.811Z,-0.9
2019-01-22T20:00:02.194Z,-0.9
2019-01-22T20:05:02.250Z,-0.9
2019-01-22T20:10:01.613Z,-1
2019-01-22T20:15:01.287Z,-1
2019-01-22T20:20:01.566Z,-1
2019-01-22T20:25:01.842Z,-1.1
2019-01-22T20:30:01.835Z,-1.1
2019-01-22T20:35:01.781Z,-1.1
2019-01-22T20:40:01.677Z,-1.1
2019-01-22T20:45:02.034Z,-1.2
2019-01-22T20:50:02.116Z,-1.2
2019-01-22T20:55:02.098Z,-1.2
2019-01-22T21:00:01.543Z,-1.3
2019-01-22T21:05:01.918Z,-1.3
2019-01-22T21:10:01.592Z,-1.3
2019-01-22T21:15:01.925Z,-1.3
2019-01-22T21:20:02.114Z,-1.4
2019-01-22T21:25:01.401Z,-1.4
2019-01-22T21:30:01.309Z,-1.4
2019-01-22T21:35:01.544Z,-1.4
2019-01-22T21:40:02.558Z,-1.5
2019-01-22T21:45:01.465Z,-1.5
2019-01-22T21:50:01.794Z,-1.5
2019-01-22T21:55:01.377Z,-1.5
2019-01-22T22:00:01.885Z,-1.6
2019-01-22T22:05:02.082Z,-1.6
2019-01-22T22:10:02.570Z,-1.6
2019-01-22T22:15:02.092Z,-1.6
2019-01-22T22:20:01.447Z,-1.7
2019-01-22T22:25:01.742Z,-1.7
2019-01-22T22:30:01.985Z,-1.7
2019-01-22T22:35:01.629Z,-1.8
2019-01-22T22:40:01.733Z,-1.8
2019-01-22T22:45:01.886Z,-1.9
2019-01-22T22:50:01.583Z,-1.9
2019-01-22T22:55:01.668Z,-2
2019-01-22T23:00:01.552Z,-2
2019-01-22T23:05:01.940Z,-2
2019-01-22T23:10:02.111Z,-2
2019-01-22T23:15:01.239Z,-2.1
2019-01-22T23:20:01.454Z,-2.1
2019-01-22T23:25:01.590Z,-2.1
2019-01-22T23:30:02.408Z,-2.2
2019-01-22T23:35:01.338Z,-2.2
2019-01-22T23:40:01.942Z,-2.2
2019-01-22T23:45:01.921Z,-2.2
2019-01-22T23:50:01.600Z,-2.2
2019-01-22T23:55:01.274Z,-2.2
